Nearby METAR Reports

 

LFRV - Vannes-Meucon, FRANCE
Distance from station: NE 28km
Mise à jour: 25/10/2020 22:00
Clair
Clair
 Wind from OSO
Vent: OSO 9 km/h
Température: 9°C
Wind Chill: 7°C
Point de rosée: 5°C
Humidité: 76%
Baromètre: 1003 hPa
Résumé: Clair
Visibility: greater than 10 km
2020/10/25 21:00 LFRV 252100Z AUTO 25005KT 220V280 CAVOK 09/05 Q1003
LFRZ - Saint - Nazaire / Montoir, FRANCE
Distance from station: SE 64km
Mise à jour: 25/10/2020 22:30
partiellement nuageux
partiellement nuageux
 Wind from OSO
Vent: OSO 17 km/h
Température: 11°C
Point de rosée: 8°C
Humidité: 82%
Baromètre: 1004 hPa
Clouds: partiellement nuageux
Visibility: 10 km
Cloud details: partiellement nuageux 1067 m
partiellement nuageux 1341 m
2020/10/25 21:30 LFRZ 252130Z AUTO 24009KT 9999 SCT035 SCT044 11/08 Q1004 TEMPO BKN020TCU
 
LFRH - Lorient / Lann- Bihoué, FRANCE
Distance from station: NO 81km
Mise à jour: 25/10/2020 22:30
Orage
Orage
 Wind from O
Vent: O 17 km/h
Température: 11°C
Point de rosée: 7°C
Humidité: 77%
Baromètre: 1003 hPa
Clouds: Orage
Visibility: 10 km
Cloud details: Peu nuageux 792 m
nuageux 975 m
nuageux 1219 m
2020/10/25 21:30 LFRH 252130Z AUTO 26009KT 240V300 9999 FEW026/// BKN032/// BKN040/// ///TCU 11/07 Q1003 BECMG SCT045
LFRB - Brest - Guipavas, FRANCE
Distance from station: NO 200km
Mise à jour: 25/10/2020 22:30
Clair
Clair
 Wind from SO
Vent: SO 13 km/h
Température: 8°C
Wind Chill: 6°C
Point de rosée: 6°C
Humidité: 87%
Baromètre: 1002 hPa
Résumé: Clair
Visibility: greater than 10 km
2020/10/25 21:30 LFRB 252130Z AUTO 23007KT CAVOK 08/06 Q1002 TEMPO 28015G30KT 3000 SHRA BKN020CB
 
LFPV - Villacoublay - Vélizy/, FRANCE
Distance from station: NE 450km
Mise à jour: 25/10/2020 22:30
Couvert
Couvert
 Wind from SSO
Vent: SSO 13 km/h
Température: 9°C
Wind Chill: 7°C
Point de rosée: 8°C
Humidité: 94%
Baromètre: 1003 hPa
Clouds: Couvert
Visibility: 10 km
Cloud details: Couvert 305 m
2020/10/25 21:30 LFPV 252130Z AUTO 21007KT 170V250 9999 OVC010 09/08 Q1003 NOSIG
LFRS - Nantes Atlantique, FRANCE
Distance from station: SE 106km
Mise à jour: 25/10/2020 22:30
nuageux
nuageux
 Wind from SSO
Vent: SSO 13 km/h
Température: 8°C
Wind Chill: 6°C
Point de rosée: 7°C
Humidité: 93%
Baromètre: 1004 hPa
Clouds: nuageux
Visibility: 10 km
Cloud details: Peu nuageux 914 m
nuageux 3353 m
nuageux 4267 m
2020/10/25 21:30 LFRS 252130Z AUTO 21007KT 9999 FEW030 BKN110 BKN140 08/07 Q1004 TEMPO SCT040TCU